sensor_id;sensor_type;location;lat;lon;timestamp;pressure;altitude;pressure_sealevel;temperature;humidity
72560;BME280;62987;52.382;9.752;2023-07-31T00:02:13;100312.94;;;15.32;100.00
72560;BME280;62987;52.382;9.752;2023-07-31T00:04:41;100314.00;;;15.29;100.00
72560;BME280;62987;52.382;9.752;2023-07-31T00:07:11;100315.94;;;15.27;100.00
72560;BME280;62987;52.382;9.752;2023-07-31T00:09:39;100302.19;;;15.19;100.00
72560;BME280;62987;52.382;9.752;2023-07-31T00:12:07;100276.63;;;15.01;100.00
72560;BME280;62987;52.382;9.752;2023-07-31T00:14:36;100304.66;;;15.22;100.00
72560;BME280;62987;52.382;9.752;2023-07-31T00:17:04;100305.63;;;15.21;100.00
72560;BME280;62987;52.382;9.752;2023-07-31T00:19:33;100303.38;;;15.15;100.00
72560;BME280;62987;52.382;9.752;2023-07-31T00:22:01;100305.81;;;15.18;100.00
72560;BME280;62987;52.382;9.752;2023-07-31T00:24:30;100303.72;;;15.23;100.00
72560;BME280;62987;52.382;9.752;2023-07-31T00:26:58;100310.97;;;15.21;100.00
72560;BME280;62987;52.382;9.752;2023-07-31T00:29:26;100298.97;;;15.14;100.00
72560;BME280;62987;52.382;9.752;2023-07-31T00:31:56;100302.72;;;15.24;100.00
72560;BME280;62987;52.382;9.752;2023-07-31T00:34:24;100300.28;;;15.21;100.00
72560;BME280;62987;52.382;9.752;2023-07-31T00:36:52;100290.94;;;15.14;100.00
72560;BME280;62987;52.382;9.752;2023-07-31T00:39:20;100300.28;;;15.21;100.00
72560;BME280;62987;52.382;9.752;2023-07-31T00:41:50;100302.19;;;15.19;100.00
72560;BME280;62987;52.382;9.752;2023-07-31T00:44:18;100283.06;;;15.11;100.00
72560;BME280;62987;52.382;9.752;2023-07-31T00:46:46;100294.16;;;15.19;100.00
72560;BME280;62987;52.382;9.752;2023-07-31T00:49:14;100289.56;;;15.21;100.00
72560;BME280;62987;52.382;9.752;2023-07-31T00:51:43;100279.25;;;15.15;100.00
72560;BME280;62987;52.382;9.752;2023-07-31T00:54:11;100277.84;;;15.09;100.00
72560;BME280;62987;52.382;9.752;2023-07-31T00:56:40;100275.28;;;15.08;100.00
72560;BME280;62987;52.382;9.752;2023-07-31T00:59:10;100275.38;;;15.06;100.00
72560;BME280;62987;52.382;9.752;2023-07-31T01:01:38;100264.00;;;15.03;100.00
72560;BME280;62987;52.382;9.752;2023-07-31T01:04:06;100249.31;;;14.96;100.00
72560;BME280;62987;52.382;9.752;2023-07-31T01:06:39;100258.66;;;15.03;100.00
72560;BME280;62987;52.382;9.752;2023-07-31T01:09:11;100250.72;;;15.01;100.00
72560;BME280;62987;52.382;9.752;2023-07-31T01:11:48;100212.25;;;14.90;100.00
72560;BME280;62987;52.382;9.752;2023-07-31T01:14:21;100231.88;;;15.03;100.00
72560;BME280;62987;52.382;9.752;2023-07-31T01:16:49;100243.03;;;15.09;100.00
72560;BME280;62987;52.382;9.752;2023-07-31T01:19:20;100238.53;;;15.10;100.00
72560;BME280;62987;52.382;9.752;2023-07-31T01:22:12;100218.47;;;15.03;100.00
72560;BME280;62987;52.382;9.752;2023-07-31T01:24:55;100221.03;;;15.04;100.00
72560;BME280;62987;52.382;9.752;2023-07-31T01:27:30;100240.97;;;15.13;100.00
72560;BME280;62987;52.382;9.752;2023-07-31T01:30:05;100240.22;;;15.11;100.00
72560;BME280;62987;52.382;9.752;2023-07-31T01:32:40;100230.16;;;15.02;100.00
72560;BME280;62987;52.382;9.752;2023-07-31T01:35:08;100228.66;;;15.10;100.00
72560;BME280;62987;52.382;9.752;2023-07-31T01:37:37;100214.06;;;15.02;100.00
72560;BME280;62987;52.382;9.752;2023-07-31T01:40:06;100204.41;;;14.99;100.00
72560;BME280;62987;52.382;9.752;2023-07-31T01:42:36;100214.72;;;15.05;100.00
72560;BME280;62987;52.382;9.752;2023-07-31T01:45:05;100202.69;;;14.98;100.00
72560;BME280;62987;52.382;9.752;2023-07-31T01:47:33;100207.75;;;15.03;100.00
72560;BME280;62987;52.382;9.752;2023-07-31T01:50:01;100180.19;;;14.88;100.00
72560;BME280;62987;52.382;9.752;2023-07-31T01:52:29;100203.38;;;15.02;100.00
72560;BME280;62987;52.382;9.752;2023-07-31T01:54:58;100200.47;;;15.05;100.00
72560;BME280;62987;52.382;9.752;2023-07-31T01:57:26;100185.78;;;14.98;100.00
72560;BME280;62987;52.382;9.752;2023-07-31T01:59:55;100191.78;;;15.01;100.00
72560;BME280;62987;52.382;9.752;2023-07-31T02:02:23;100176.06;;;14.97;100.00
72560;BME280;62987;52.382;9.752;2023-07-31T02:04:51;100196.28;;;15.01;100.00
72560;BME280;62987;52.382;9.752;2023-07-31T02:07:20;100190.94;;;15.01;100.00
72560;BME280;62987;52.382;9.752;2023-07-31T02:09:48;100194.38;;;15.03;100.00
72560;BME280;62987;52.382;9.752;2023-07-31T02:12:16;100190.84;;;15.02;100.00
72560;BME280;62987;52.382;9.752;2023-07-31T02:14:44;100191.56;;;15.04;100.00
72560;BME280;62987;52.382;9.752;2023-07-31T02:17:13;100193.28;;;15.05;100.00
72560;BME280;62987;52.382;9.752;2023-07-31T02:19:41;100063.03;;;14.27;100.00
72560;BME280;62987;52.382;9.752;2023-07-31T02:22:09;100156.53;;;14.82;100.00
72560;BME280;62987;52.382;9.752;2023-07-31T02:24:37;100160.59;;;14.88;100.00
72560;BME280;62987;52.382;9.752;2023-07-31T02:27:06;100179.03;;;15.05;100.00
72560;BME280;62987;52.382;9.752;2023-07-31T02:29:34;100172.81;;;15.04;100.00
72560;BME280;62987;52.382;9.752;2023-07-31T02:32:02;100174.44;;;15.07;100.00
72560;BME280;62987;52.382;9.752;2023-07-31T02:34:32;100170.81;;;15.08;100.00
72560;BME280;62987;52.382;9.752;2023-07-31T02:37:00;100166.41;;;15.07;100.00
72560;BME280;62987;52.382;9.752;2023-07-31T02:39:28;100167.34;;;15.06;100.00
72560;BME280;62987;52.382;9.752;2023-07-31T02:41:56;100139.94;;;14.90;100.00
72560;BME280;62987;52.382;9.752;2023-07-31T02:44:24;100163.81;;;15.05;100.00
72560;BME280;62987;52.382;9.752;2023-07-31T02:46:52;100169.06;;;15.07;100.00
72560;BME280;62987;52.382;9.752;2023-07-31T02:49:20;100165.63;;;15.05;100.00
72560;BME280;62987;52.382;9.752;2023-07-31T02:51:49;100165.63;;;15.05;100.00
72560;BME280;62987;52.382;9.752;2023-07-31T02:54:17;100141.66;;;14.91;100.00
72560;BME280;62987;52.382;9.752;2023-07-31T02:56:47;100164.91;;;15.03;100.00
72560;BME280;62987;52.382;9.752;2023-07-31T02:59:16;100155.34;;;14.99;100.00
72560;BME280;62987;52.382;9.752;2023-07-31T03:01:44;100159.31;;;15.06;100.00
72560;BME280;62987;52.382;9.752;2023-07-31T03:04:13;100152.47;;;15.02;100.00
72560;BME280;62987;52.382;9.752;2023-07-31T03:06:44;100156.66;;;15.06;100.00
72560;BME280;62987;52.382;9.752;2023-07-31T03:09:13;100157.50;;;15.06;100.00
72560;BME280;62987;52.382;9.752;2023-07-31T03:11:41;100164.69;;;15.06;100.00
72560;BME280;62987;52.382;9.752;2023-07-31T03:14:10;100169.06;;;15.07;100.00
72560;BME280;62987;52.382;9.752;2023-07-31T03:16:38;100134.69;;;14.88;100.00
72560;BME280;62987;52.382;9.752;2023-07-31T03:19:07;100148.59;;;14.93;100.00
72560;BME280;62987;52.382;9.752;2023-07-31T03:21:35;100168.22;;;15.06;100.00
72560;BME280;62987;52.382;9.752;2023-07-31T03:24:03;100171.66;;;15.08;100.00
72560;BME280;62987;52.382;9.752;2023-07-31T03:26:33;100176.78;;;15.11;100.00
72560;BME280;62987;52.382;9.752;2023-07-31T03:29:02;100169.06;;;15.07;100.00
72560;BME280;62987;52.382;9.752;2023-07-31T03:31:30;100174.25;;;15.10;100.00
72560;BME280;62987;52.382;9.752;2023-07-31T03:33:58;100165.22;;;15.11;100.00
72560;BME280;62987;52.382;9.752;2023-07-31T03:36:26;100168.66;;;15.13;100.00
72560;BME280;62987;52.382;9.752;2023-07-31T03:38:54;100165.00;;;15.14;100.00
72560;BME280;62987;52.382;9.752;2023-07-31T03:41:23;100160.72;;;15.11;100.00
72560;BME280;62987;52.382;9.752;2023-07-31T03:43:53;100145.94;;;15.06;100.00
72560;BME280;62987;52.382;9.752;2023-07-31T03:46:23;100164.47;;;15.09;100.00
72560;BME280;62987;52.382;9.752;2023-07-31T03:48:51;100168.22;;;15.06;100.00
72560;BME280;62987;52.382;9.752;2023-07-31T03:51:19;100136.94;;;14.94;100.00
72560;BME280;62987;52.382;9.752;2023-07-31T03:53:47;100163.72;;;15.07;100.00
72560;BME280;62987;52.382;9.752;2023-07-31T03:56:15;100153.88;;;15.07;100.00
72560;BME280;62987;52.382;9.752;2023-07-31T03:58:43;100157.84;;;15.02;100.00
72560;BME280;62987;52.382;9.752;2023-07-31T04:01:12;100158.78;;;15.01;100.00
72560;BME280;62987;52.382;9.752;2023-07-31T04:03:41;100153.00;;;14.94;100.00
72560;BME280;62987;52.382;9.752;2023-07-31T04:06:08;100158.34;;;14.94;100.00
72560;BME280;62987;52.382;9.752;2023-07-31T04:08:37;100138.31;;;14.74;100.00
72560;BME280;62987;52.382;9.752;2023-07-31T04:11:05;100148.81;;;14.77;100.00
72560;BME280;62987;52.382;9.752;2023-07-31T04:13:33;100105.81;;;14.54;100.00
72560;BME280;62987;52.382;9.752;2023-07-31T04:16:01;100152.75;;;14.85;100.00
72560;BME280;62987;52.382;9.752;2023-07-31T04:18:30;100151.69;;;14.87;100.00
72560;BME280;62987;52.382;9.752;2023-07-31T04:20:59;100145.72;;;14.84;100.00
72560;BME280;62987;52.382;9.752;2023-07-31T04:23:28;100147.72;;;14.80;100.00
72560;BME280;62987;52.382;9.752;2023-07-31T04:25:56;100152.13;;;14.81;100.00
72560;BME280;62987;52.382;9.752;2023-07-31T04:28:24;100143.66;;;14.74;100.00
72560;BME280;62987;52.382;9.752;2023-07-31T04:30:53;100144.19;;;14.79;100.00
72560;BME280;62987;52.382;9.752;2023-07-31T04:33:21;100145.06;;;14.80;100.00
72560;BME280;62987;52.382;9.752;2023-07-31T04:35:52;100132.00;;;14.75;100.00
72560;BME280;62987;52.382;9.752;2023-07-31T04:38:21;100145.50;;;14.87;100.00
72560;BME280;62987;52.382;9.752;2023-07-31T04:40:49;100134.00;;;14.85;100.00
72560;BME280;62987;52.382;9.752;2023-07-31T04:43:17;100147.66;;;14.94;100.00
72560;BME280;62987;52.382;9.752;2023-07-31T04:45:46;100152.91;;;14.96;100.00
72560;BME280;62987;52.382;9.752;2023-07-31T04:48:14;100140.66;;;14.92;100.00
72560;BME280;62987;52.382;9.752;2023-07-31T04:50:42;100131.25;;;14.86;100.00
72560;BME280;62987;52.382;9.752;2023-07-31T04:53:12;100136.50;;;14.88;100.00
72560;BME280;62987;52.382;9.752;2023-07-31T04:55:40;100132.88;;;14.89;100.00
72560;BME280;62987;52.382;9.752;2023-07-31T04:58:08;100133.50;;;14.92;100.00
72560;BME280;62987;52.382;9.752;2023-07-31T05:00:34;100135.31;;;14.92;100.00
72560;BME280;62987;52.382;9.752;2023-07-31T05:03:03;100139.72;;;14.93;100.00
72560;BME280;62987;52.382;9.752;2023-07-31T05:05:31;100135.22;;;14.93;100.00
72560;BME280;62987;52.382;9.752;2023-07-31T05:07:59;100133.50;;;14.92;100.00
72560;BME280;62987;52.382;9.752;2023-07-31T05:10:29;100123.31;;;14.85;100.00
72560;BME280;62987;52.382;9.752;2023-07-31T05:12:57;100122.56;;;14.83;100.00
72560;BME280;62987;52.382;9.752;2023-07-31T05:15:25;100114.22;;;14.74;100.00
72560;BME280;62987;52.382;9.752;2023-07-31T05:17:53;100121.72;;;14.82;100.00
72560;BME280;62987;52.382;9.752;2023-07-31T05:20:21;100116.13;;;14.85;100.00
72560;BME280;62987;52.382;9.752;2023-07-31T05:22:50;100121.28;;;14.88;100.00
72560;BME280;62987;52.382;9.752;2023-07-31T05:25:19;100116.03;;;14.87;100.00
72560;BME280;62987;52.382;9.752;2023-07-31T05:27:48;100111.22;;;14.92;100.00
72560;BME280;62987;52.382;9.752;2023-07-31T05:30:16;100121.06;;;14.91;100.00
72560;BME280;62987;52.382;9.752;2023-07-31T05:32:44;100114.03;;;14.90;100.00
72560;BME280;62987;52.382;9.752;2023-07-31T05:35:12;100105.75;;;14.80;100.00
72560;BME280;62987;52.382;9.752;2023-07-31T05:37:40;100112.41;;;14.88;100.00
72560;BME280;62987;52.382;9.752;2023-07-31T05:40:09;100116.78;;;14.89;100.00
72560;BME280;62987;52.382;9.752;2023-07-31T05:42:37;100107.91;;;14.88;100.00
72560;BME280;62987;52.382;9.752;2023-07-31T05:45:07;100098.31;;;15.47;100.00
72560;BME280;62987;52.382;9.752;2023-07-31T05:47:35;100110.53;;;15.39;100.00
72560;BME280;62987;52.382;9.752;2023-07-31T05:50:04;100095.13;;;15.42;100.00
72560;BME280;62987;52.382;9.752;2023-07-31T05:52:32;100094.28;;;15.29;100.00
72560;BME280;62987;52.382;9.752;2023-07-31T05:55:00;100105.72;;;15.31;100.00
72560;BME280;62987;52.382;9.752;2023-07-31T05:57:28;100108.22;;;15.34;100.00
72560;BME280;62987;52.382;9.752;2023-07-31T05:59:56;100104.31;;;15.38;100.00
72560;BME280;62987;52.382;9.752;2023-07-31T06:02:25;100105.09;;;15.40;100.00
72560;BME280;62987;52.382;9.752;2023-07-31T06:04:53;100103.03;;;15.44;100.00
72560;BME280;62987;52.382;9.752;2023-07-31T06:07:21;100102.16;;;15.43;100.00
72560;BME280;62987;52.382;9.752;2023-07-31T06:09:49;100092.31;;;15.44;100.00
72560;BME280;62987;52.382;9.752;2023-07-31T06:12:17;100102.72;;;15.48;100.00
72560;BME280;62987;52.382;9.752;2023-07-31T06:14:45;100104.03;;;15.55;100.00
72560;BME280;62987;52.382;9.752;2023-07-31T06:17:13;100099.19;;;15.61;100.00
72560;BME280;62987;52.382;9.752;2023-07-31T06:19:43;100103.34;;;15.65;100.00
72560;BME280;62987;52.382;9.752;2023-07-31T06:22:11;100104.31;;;15.64;100.00
72560;BME280;62987;52.382;9.752;2023-07-31T06:24:39;100096.38;;;15.62;100.00
72560;BME280;62987;52.382;9.752;2023-07-31T06:27:07;100099.19;;;15.61;100.00
72560;BME280;62987;52.382;9.752;2023-07-31T06:29:35;100111.38;;;15.65;100.00
72560;BME280;62987;52.382;9.752;2023-07-31T06:32:03;100101.63;;;15.64;100.00
72560;BME280;62987;52.382;9.752;2023-07-31T06:34:32;100097.47;;;15.59;100.00
72560;BME280;62987;52.382;9.752;2023-07-31T06:37:01;100098.22;;;15.62;100.00
72560;BME280;62987;52.382;9.752;2023-07-31T06:39:29;100083.72;;;15.51;100.00
72560;BME280;62987;52.382;9.752;2023-07-31T06:41:57;100094.38;;;15.53;100.00
72560;BME280;62987;52.382;9.752;2023-07-31T06:44:25;100097.56;;;15.45;100.00
72560;BME280;62987;52.382;9.752;2023-07-31T06:46:53;100097.16;;;15.39;100.00
72560;BME280;62987;52.382;9.752;2023-07-31T06:49:21;100078.06;;;15.31;100.00
72560;BME280;62987;52.382;9.752;2023-07-31T06:51:49;100095.78;;;15.33;100.00
72560;BME280;62987;52.382;9.752;2023-07-31T06:54:18;100106.06;;;15.39;100.00
72560;BME280;62987;52.382;9.752;2023-07-31T06:56:47;100105.09;;;15.40;100.00
72560;BME280;62987;52.382;9.752;2023-07-31T06:59:15;100097.03;;;15.40;100.00
72560;BME280;62987;52.382;9.752;2023-07-31T07:01:43;100095.13;;;15.30;100.00
72560;BME280;62987;52.382;9.752;2023-07-31T07:04:11;100087.41;;;15.25;100.00
72560;BME280;62987;52.382;9.752;2023-07-31T07:06:39;100094.69;;;15.36;100.00
72560;BME280;62987;52.382;9.752;2023-07-31T07:09:08;100101.22;;;15.44;100.00
72560;BME280;62987;52.382;9.752;2023-07-31T07:11:38;100096.09;;;15.41;100.00
72560;BME280;62987;52.382;9.752;2023-07-31T07:14:06;100088.78;;;15.43;100.00
72560;BME280;62987;52.382;9.752;2023-07-31T07:16:34;100087.72;;;15.46;100.00
72560;BME280;62987;52.382;9.752;2023-07-31T07:19:02;100091.00;;;15.49;100.00
72560;BME280;62987;52.382;9.752;2023-07-31T07:21:31;100089.31;;;15.48;100.00
72560;BME280;62987;52.382;9.752;2023-07-31T07:23:59;100092.09;;;15.47;100.00
72560;BME280;62987;52.382;9.752;2023-07-31T07:26:27;100105.59;;;15.45;100.00
72560;BME280;62987;52.382;9.752;2023-07-31T07:28:56;100111.50;;;15.50;100.00
72560;BME280;62987;52.382;9.752;2023-07-31T07:31:27;100102.19;;;15.56;100.00
72560;BME280;62987;52.382;9.752;2023-07-31T07:33:55;100103.44;;;15.63;100.00
72560;BME280;62987;52.382;9.752;2023-07-31T07:36:24;100091.22;;;15.72;100.00
72560;BME280;62987;52.382;9.752;2023-07-31T07:38:52;100106.03;;;15.88;100.00
72560;BME280;62987;52.382;9.752;2023-07-31T07:41:19;100089.19;;;15.99;100.00
72560;BME280;62987;52.382;9.752;2023-07-31T07:43:47;100095.34;;;16.12;100.00
72560;BME280;62987;52.382;9.752;2023-07-31T07:46:17;100092.94;;;16.20;100.00
72560;BME280;62987;52.382;9.752;2023-07-31T07:48:45;100084.75;;;16.22;100.00
72560;BME280;62987;52.382;9.752;2023-07-31T07:51:13;100088.59;;;16.30;100.00
72560;BME280;62987;52.382;9.752;2023-07-31T07:53:41;100072.88;;;16.37;100.00
72560;BME280;62987;52.382;9.752;2023-07-31T07:56:09;100076.41;;;16.37;100.00
72560;BME280;62987;52.382;9.752;2023-07-31T07:58:37;100061.28;;;16.36;100.00
72560;BME280;62987;52.382;9.752;2023-07-31T08:01:05;100065.72;;;16.49;100.00
72560;BME280;62987;52.382;9.752;2023-07-31T08:03:34;100069.63;;;16.56;100.00
72560;BME280;62987;52.382;9.752;2023-07-31T08:06:03;100072.22;;;16.57;100.00
72560;BME280;62987;52.382;9.752;2023-07-31T08:08:34;100070.59;;;16.55;100.00
72560;BME280;62987;52.382;9.752;2023-07-31T08:11:02;100085.63;;;16.57;100.00
72560;BME280;62987;52.382;9.752;2023-07-31T08:13:30;100055.91;;;16.36;100.00
72560;BME280;62987;52.382;9.752;2023-07-31T08:15:58;100089.88;;;16.49;100.00
72560;BME280;62987;52.382;9.752;2023-07-31T08:18:26;100086.09;;;16.51;100.00
72560;BME280;62987;52.382;9.752;2023-07-31T08:20:56;100092.50;;;16.61;100.00
72560;BME280;62987;52.382;9.752;2023-07-31T08:23:23;100092.03;;;16.67;100.00
72560;BME280;62987;52.382;9.752;2023-07-31T08:25:51;100077.59;;;16.57;100.00
72560;BME280;62987;52.382;9.752;2023-07-31T08:28:19;100076.50;;;16.60;100.00
72560;BME280;62987;52.382;9.752;2023-07-31T08:30:47;100078.97;;;16.63;100.00
72560;BME280;62987;52.382;9.752;2023-07-31T08:33:17;100084.56;;;16.60;100.00
72560;BME280;62987;52.382;9.752;2023-07-31T08:35:45;100076.78;;;16.68;100.00
72560;BME280;62987;52.382;9.752;2023-07-31T08:38:14;100071.69;;;16.87;100.00
72560;BME280;62987;52.382;9.752;2023-07-31T08:40:42;100065.72;;;16.84;100.00
72560;BME280;62987;52.382;9.752;2023-07-31T08:43:11;100069.47;;;16.81;100.00
72560;BME280;62987;52.382;9.752;2023-07-31T08:45:41;100054.06;;;16.61;100.00
72560;BME280;62987;52.382;9.752;2023-07-31T08:48:10;100063.47;;;16.66;100.00
72560;BME280;62987;52.382;9.752;2023-07-31T08:50:39;100060.44;;;16.71;100.00
72560;BME280;62987;52.382;9.752;2023-07-31T08:53:07;100062.38;;;16.69;100.00
72560;BME280;62987;52.382;9.752;2023-07-31T08:55:37;100056.69;;;16.85;100.00
72560;BME280;62987;52.382;9.752;2023-07-31T08:58:06;100057.53;;;17.07;100.00
72560;BME280;62987;52.382;9.752;2023-07-31T09:00:34;100049.47;;;17.18;100.00
72560;BME280;62987;52.382;9.752;2023-07-31T09:03:08;100014.53;;;17.07;100.00
72560;BME280;62987;52.382;9.752;2023-07-31T09:05:39;100052.03;;;17.20;100.00
72560;BME280;62987;52.382;9.752;2023-07-31T09:08:09;100052.44;;;17.04;100.00
72560;BME280;62987;52.382;9.752;2023-07-31T09:10:41;100038.09;;;16.93;100.00
72560;BME280;62987;52.382;9.752;2023-07-31T09:13:09;100043.63;;;17.02;100.00
72560;BME280;62987;52.382;9.752;2023-07-31T09:15:39;100051.56;;;17.15;100.00
72560;BME280;62987;52.382;9.752;2023-07-31T09:18:08;100034.19;;;17.19;100.00
72560;BME280;62987;52.382;9.752;2023-07-31T09:20:37;100029.53;;;17.32;100.00
72560;BME280;62987;52.382;9.752;2023-07-31T09:23:06;100033.06;;;17.44;100.00
72560;BME280;62987;52.382;9.752;2023-07-31T09:25:36;100034.19;;;17.41;100.00
72560;BME280;62987;52.382;9.752;2023-07-31T09:28:07;100027.47;;;17.36;100.00
72560;BME280;62987;52.382;9.752;2023-07-31T09:30:46;100023.47;;;17.30;100.00
72560;BME280;62987;52.382;9.752;2023-07-31T09:33:15;100022.09;;;17.25;100.00
72560;BME280;62987;52.382;9.752;2023-07-31T09:35:43;100016.50;;;17.28;100.00
72560;BME280;62987;52.382;9.752;2023-07-31T09:38:13;99999.63;;;17.26;100.00
72560;BME280;62987;52.382;9.752;2023-07-31T09:40:42;100015.75;;;17.37;100.00
72560;BME280;62987;52.382;9.752;2023-07-31T09:43:19;100027.59;;;17.34;100.00
72560;BME280;62987;52.382;9.752;2023-07-31T09:45:48;100012.34;;;17.12;100.00
72560;BME280;62987;52.382;9.752;2023-07-31T09:48:23;100023.69;;;17.27;100.00
72560;BME280;62987;52.382;9.752;2023-07-31T09:50:53;100008.91;;;17.22;100.00
72560;BME280;62987;52.382;9.752;2023-07-31T09:53:28;100016.63;;;17.15;100.00
72560;BME280;62987;52.382;9.752;2023-07-31T09:55:58;100015.66;;;17.16;100.00
72560;BME280;62987;52.382;9.752;2023-07-31T09:58:29;100001.72;;;17.11;100.00
72560;BME280;62987;52.382;9.752;2023-07-31T10:00:58;100012.22;;;17.14;100.00
72560;BME280;62987;52.382;9.752;2023-07-31T10:03:27;99988.41;;;17.09;100.00
72560;BME280;62987;52.382;9.752;2023-07-31T10:05:57;99987.44;;;17.10;100.00
72560;BME280;62987;52.382;9.752;2023-07-31T10:08:30;100008.91;;;17.22;100.00
72560;BME280;62987;52.382;9.752;2023-07-31T10:11:00;100002.19;;;17.27;100.00
72560;BME280;62987;52.382;9.752;2023-07-31T10:13:32;99996.94;;;17.26;100.00
72560;BME280;62987;52.382;9.752;2023-07-31T10:16:00;99982.03;;;17.22;100.00
72560;BME280;62987;52.382;9.752;2023-07-31T10:18:31;99992.75;;;17.33;100.00
72560;BME280;62987;52.382;9.752;2023-07-31T10:20:59;99990.47;;;17.28;100.00
72560;BME280;62987;52.382;9.752;2023-07-31T10:23:28;99984.59;;;17.34;100.00
72560;BME280;62987;52.382;9.752;2023-07-31T10:25:57;99980.50;;;17.51;100.00
72560;BME280;62987;52.382;9.752;2023-07-31T10:28:27;99980.72;;;17.59;100.00
72560;BME280;62987;52.382;9.752;2023-07-31T10:30:56;99972.91;;;17.67;100.00
72560;BME280;62987;52.382;9.752;2023-07-31T10:33:25;99980.47;;;17.73;100.00
72560;BME280;62987;52.382;9.752;2023-07-31T10:36:14;99971.94;;;17.68;100.00
72560;BME280;62987;52.382;9.752;2023-07-31T10:38:43;99957.25;;;17.72;100.00
72560;BME280;62987;52.382;9.752;2023-07-31T10:41:11;99958.97;;;17.73;100.00
72560;BME280;62987;52.382;9.752;2023-07-31T10:43:39;99965.53;;;17.80;100.00
72560;BME280;62987;52.382;9.752;2023-07-31T10:46:11;99949.41;;;17.80;100.00
72560;BME280;62987;52.382;9.752;2023-07-31T10:48:40;99966.72;;;17.87;100.00
72560;BME280;62987;52.382;9.752;2023-07-31T10:51:10;99958.19;;;17.82;100.00
72560;BME280;62987;52.382;9.752;2023-07-31T10:53:39;99940.59;;;17.78;100.00
72560;BME280;62987;52.382;9.752;2023-07-31T10:56:09;99956.16;;;17.95;100.00
72560;BME280;62987;52.382;9.752;2023-07-31T10:58:39;99947.59;;;18.02;100.00
72560;BME280;62987;52.382;9.752;2023-07-31T11:01:08;99955.38;;;18.05;100.00
72560;BME280;62987;52.382;9.752;2023-07-31T11:03:44;99945.06;;;18.10;100.00
72560;BME280;62987;52.382;9.752;2023-07-31T11:06:12;99934.47;;;18.08;100.00
72560;BME280;62987;52.382;9.752;2023-07-31T11:08:45;99932.91;;;18.15;100.00
72560;BME280;62987;52.382;9.752;2023-07-31T11:11:15;99938.63;;;18.22;100.00
72560;BME280;62987;52.382;9.752;2023-07-31T11:13:45;99921.94;;;18.28;100.00
72560;BME280;62987;52.382;9.752;2023-07-31T11:16:18;99930.22;;;18.36;100.00
72560;BME280;62987;52.382;9.752;2023-07-31T11:18:48;99943.09;;;18.53;100.00
72560;BME280;62987;52.382;9.752;2023-07-31T11:21:18;99940.41;;;18.53;100.00
72560;BME280;62987;52.382;9.752;2023-07-31T11:23:47;99942.72;;;18.58;100.00
72560;BME280;62987;52.382;9.752;2023-07-31T11:26:16;99937.22;;;18.69;100.00
72560;BME280;62987;52.382;9.752;2023-07-31T11:28:46;99931.75;;;18.80;100.00
72560;BME280;62987;52.382;9.752;2023-07-31T11:31:14;99929.22;;;18.88;100.00
72560;BME280;62987;52.382;9.752;2023-07-31T11:33:45;99935.28;;;18.71;100.00
72560;BME280;62987;52.382;9.752;2023-07-31T11:36:16;99929.13;;;18.59;100.00
72560;BME280;62987;52.382;9.752;2023-07-31T11:38:47;99914.34;;;18.33;100.00
72560;BME280;62987;52.382;9.752;2023-07-31T11:41:16;99931.84;;;18.48;100.00
72560;BME280;62987;52.382;9.752;2023-07-31T11:43:45;99941.06;;;18.46;100.00
72560;BME280;62987;52.382;9.752;2023-07-31T11:46:13;99929.69;;;18.42;100.00
72560;BME280;62987;52.382;9.752;2023-07-31T11:48:42;99920.38;;;18.46;100.00
72560;BME280;62987;52.382;9.752;2023-07-31T11:51:13;99928.09;;;18.60;100.00
72560;BME280;62987;52.382;9.752;2023-07-31T11:53:44;99909.72;;;18.65;100.00
72560;BME280;62987;52.382;9.752;2023-07-31T11:56:14;99917.84;;;18.54;100.00
72560;BME280;62987;52.382;9.752;2023-07-31T11:58:45;99913.00;;;18.69;100.00
72560;BME280;62987;52.382;9.752;2023-07-31T12:01:15;99912.81;;;18.61;100.00
72560;BME280;62987;52.382;9.752;2023-07-31T12:03:44;99909.84;;;18.64;100.00
72560;BME280;62987;52.382;9.752;2023-07-31T12:06:14;99896.28;;;18.54;100.00
72560;BME280;62987;52.382;9.752;2023-07-31T12:08:42;99905.75;;;18.69;100.00
72560;BME280;62987;52.382;9.752;2023-07-31T12:11:10;99898.03;;;18.55;100.00
72560;BME280;62987;52.382;9.752;2023-07-31T12:13:40;99905.50;;;18.72;100.00
72560;BME280;62987;52.382;9.752;2023-07-31T12:16:08;99908.00;;;18.64;100.00
72560;BME280;62987;52.382;9.752;2023-07-31T12:18:37;99914.13;;;18.66;100.00
72560;BME280;62987;52.382;9.752;2023-07-31T12:21:07;99912.97;;;18.59;100.00
72560;BME280;62987;52.382;9.752;2023-07-31T12:23:37;99907.34;;;18.51;100.00
72560;BME280;62987;52.382;9.752;2023-07-31T12:26:09;99907.69;;;18.37;100.00
72560;BME280;62987;52.382;9.752;2023-07-31T12:28:40;99903.38;;;18.46;100.00
72560;BME280;62987;52.382;9.752;2023-07-31T12:31:09;99904.22;;;18.46;100.00
72560;BME280;62987;52.382;9.752;2023-07-31T12:33:41;99898.50;;;18.40;100.00
72560;BME280;62987;52.382;9.752;2023-07-31T12:36:10;99891.72;;;18.45;100.00
72560;BME280;62987;52.382;9.752;2023-07-31T12:38:40;99888.63;;;18.50;100.00
72560;BME280;62987;52.382;9.752;2023-07-31T12:41:08;99894.22;;;18.58;100.00
72560;BME280;62987;52.382;9.752;2023-07-31T12:43:38;99895.28;;;18.46;100.00
72560;BME280;62987;52.382;9.752;2023-07-31T12:46:07;99888.97;;;18.56;100.00
72560;BME280;62987;52.382;9.752;2023-07-31T12:48:36;99893.38;;;18.57;100.00
72560;BME280;62987;52.382;9.752;2023-07-31T12:51:04;99875.25;;;18.59;100.00
72560;BME280;62987;52.382;9.752;2023-07-31T12:53:33;99883.38;;;18.48;100.00